Time;durP1;ratioP1;P1;durP2;ratioP2;P2;SDS_P1;SDS_P2;PMS_P1;PMS_P2;Temp;Humidity;BMP_temperature;BMP_pressure;BME280_temperature;BME280_humidity;BME280_pressure;Samples;Min_cycle;Max_cycle;Signal;HPM_P1;HPM_P2
2022/03/22 18:07:57;;;;;;;20.45;12.75;;;;;;;;;;7304784;19;20361;-83
2022/03/22 18:10:22;;;;;;;23.00;12.27;;;;;;;;;;7342072;19;20605;-83
2022/03/22 18:12:48;;;;;;;24.90;12.23;;;;;;;;;;7338110;19;20009;-83
2022/03/22 18:15:15;;;;;;;22.67;11.80;;;;;;;;;;7341697;19;20263;-84
2022/03/22 18:17:41;;;;;;;27.15;12.05;;;;;;;;;;7345565;19;20082;-85
2022/03/22 18:20:08;;;;;;;21.35;11.45;;;;;;;;;;7335953;19;20002;-85
2022/03/22 18:22:34;;;;;;;20.33;12.52;;;;;;;;;;7329666;19;20799;-84
2022/03/22 18:25:00;;;;;;;22.63;11.63;;;;;;;;;;7348828;19;20037;-84
2022/03/22 18:27:26;;;;;;;21.58;12.23;;;;;;;;;;7359895;19;21959;-83
2022/03/22 18:29:51;;;;;;;20.70;11.93;;;;;;;;;;7371694;19;20006;-82
2022/03/22 18:32:17;;;;;;;26.13;12.97;;;;;;;;;;7365928;19;20010;-85
2022/03/22 18:34:42;;;;;;;22.55;11.93;;;;;;;;;;7378509;19;20006;-82
2022/03/22 18:37:08;;;;;;;24.00;13.13;;;;;;;;;;7374791;19;20544;-83
2022/03/22 18:39:33;;;;;;;23.27;12.55;;;;;;;;;;7380408;19;20276;-83
2022/03/22 18:41:59;;;;;;;25.40;14.70;;;;;;;;;;7376242;19;20014;-83
2022/03/22 18:44:25;;;;;;;25.27;13.02;;;;;;;;;;7376776;19;20530;-83
2022/03/22 18:46:50;;;;;;;28.05;13.93;;;;;;;;;;7351741;19;20014;-79
2022/03/22 18:49:15;;;;;;;32.27;15.80;;;;;;;;;;7364479;19;20013;-81
2022/03/22 18:51:40;;;;;;;28.37;14.63;;;;;;;;;;7373786;19;20300;-79
2022/03/22 18:54:10;;;;;;;26.13;15.27;;;;;;;;;;7376736;19;21036;-80
2022/03/22 18:56:36;;;;;;;25.80;14.50;;;;;;;;;;7381715;19;20516;-83
2022/03/22 18:59:02;;;;;;;23.52;12.88;;;;;;;;;;7367596;19;20114;-82
2022/03/22 19:01:27;;;;;;;24.52;13.13;;;;;;;;;;7371331;19;20328;-80
2022/03/22 19:03:53;;;;;;;26.30;13.00;;;;;;;;;;7375182;19;20643;-79
2022/03/22 19:06:18;;;;;;;25.95;13.73;;;;;;;;;;7363432;19;20010;-83
2022/03/22 19:08:45;;;;;;;28.92;15.30;;;;;;;;;;7361810;19;21093;-80
2022/03/22 19:11:11;;;;;;;26.13;14.25;;;;;;;;;;7361605;19;20034;-80
2022/03/22 19:13:37;;;;;;;28.10;16.33;;;;;;;;;;7367328;19;20018;-80
2022/03/22 19:18:46;;;;;;;;;;;;;;;;;;7376566;19;20013;-79
2022/03/22 19:21:12;;;;;;;28.10;15.48;;;;;;;;;;7368954;19;19927;-79
2022/03/22 19:23:37;;;;;;;25.92;14.68;;;;;;;;;;7371844;19;20007;-81
2022/03/22 19:26:02;;;;;;;32.78;16.25;;;;;;;;;;7347620;19;22463;-82
2022/03/22 19:28:28;;;;;;;28.45;16.63;;;;;;;;;;7362744;19;20009;-81
2022/03/22 19:33:36;;;;;;;31.20;16.92;;;;;;;;;;7370282;19;21160;-80
2022/03/22 19:36:02;;;;;;;30.55;18.17;;;;;;;;;;7373515;19;20011;-79
2022/03/22 19:38:29;;;;;;;50.20;18.92;;;;;;;;;;7378153;19;20030;-80
2022/03/22 19:40:54;;;;;;;35.50;17.60;;;;;;;;;;7369958;19;20015;-79
2022/03/22 19:43:20;;;;;;;27.10;16.75;;;;;;;;;;7373453;19;20007;-79
2022/03/22 19:45:45;;;;;;;25.95;15.85;;;;;;;;;;7371460;19;20045;-81
2022/03/22 19:48:11;;;;;;;31.58;15.57;;;;;;;;;;7371501;19;20010;-82
2022/03/22 19:50:36;;;;;;;31.80;15.13;;;;;;;;;;7362715;19;20010;-80
2022/03/22 19:53:01;;;;;;;28.48;15.50;;;;;;;;;;7376679;19;20037;-82
2022/03/22 19:55:30;;;;;;;26.90;15.20;;;;;;;;;;7373571;19;20098;-79
2022/03/22 19:57:55;;;;;;;30.42;14.90;;;;;;;;;;7372712;19;20274;-78
2022/03/22 20:00:21;;;;;;;27.57;14.13;;;;;;;;;;7369983;19;20002;-78
2022/03/22 20:02:48;;;;;;;25.05;14.25;;;;;;;;;;7375375;19;20255;-78
2022/03/22 20:05:14;;;;;;;27.98;14.05;;;;;;;;;;7370836;19;20621;-78
2022/03/22 20:07:41;;;;;;;25.55;14.25;;;;;;;;;;7364106;19;20038;-80
2022/03/22 20:10:06;;;;;;;31.25;14.57;;;;;;;;;;7351213;19;20007;-79
2022/03/22 20:12:31;;;;;;;36.22;17.58;;;;;;;;;;7364414;19;20006;-79
2022/03/22 20:14:56;;;;;;;43.38;21.63;;;;;;;;;;7365532;19;20023;-80
2022/03/22 20:17:22;;;;;;;39.50;20.80;;;;;;;;;;7370042;19;20014;-79
2022/03/22 20:19:47;;;;;;;33.63;19.17;;;;;;;;;;7345787;19;20855;-77
2022/03/22 20:22:13;;;;;;;31.98;17.48;;;;;;;;;;7353890;19;20361;-78
2022/03/22 20:24:39;;;;;;;29.63;16.13;;;;;;;;;;7364673;19;20522;-78
2022/03/22 20:27:05;;;;;;;27.85;14.45;;;;;;;;;;7369551;19;20247;-78
2022/03/22 20:29:30;;;;;;;30.70;15.68;;;;;;;;;;7368323;19;20010;-78
2022/03/22 20:31:55;;;;;;;29.03;14.67;;;;;;;;;;7377797;19;20037;-77
2022/03/22 20:34:21;;;;;;;29.60;15.83;;;;;;;;;;7371668;19;21007;-81
2022/03/22 20:36:46;;;;;;;31.90;16.73;;;;;;;;;;7369897;19;20602;-80
2022/03/22 20:39:12;;;;;;;29.52;16.05;;;;;;;;;;7367461;19;21235;-82
2022/03/22 20:41:37;;;;;;;33.00;17.55;;;;;;;;;;7370577;19;20010;-79
2022/03/22 20:44:04;;;;;;;29.15;16.90;;;;;;;;;;7349965;19;20354;-78
2022/03/22 20:46:29;;;;;;;28.92;16.63;;;;;;;;;;7378643;19;20743;-79
2022/03/22 20:48:55;;;;;;;31.33;17.83;;;;;;;;;;7369623;19;20021;-81
2022/03/22 20:51:21;;;;;;;29.77;16.40;;;;;;;;;;7368700;19;20340;-79
2022/03/22 20:53:46;;;;;;;31.20;16.52;;;;;;;;;;7374751;19;20022;-79
2022/03/22 20:59:04;;;;;;;32.63;16.98;;;;;;;;;;7374751;19;21152;-77
2022/03/22 21:01:30;;;;;;;32.80;17.50;;;;;;;;;;7370686;19;20017;-78
2022/03/22 21:03:56;;;;;;;36.55;18.98;;;;;;;;;;7371962;19;20002;-79
2022/03/22 21:06:21;;;;;;;34.45;19.35;;;;;;;;;;7349068;19;20006;-78
2022/03/22 21:08:46;;;;;;;38.38;19.83;;;;;;;;;;7331766;19;20093;-81
2022/03/22 21:11:12;;;;;;;34.63;18.13;;;;;;;;;;7351056;19;20010;-80
2022/03/22 21:13:38;;;;;;;41.03;19.48;;;;;;;;;;7380734;19;20030;-82
2022/03/22 21:16:04;;;;;;;36.80;19.38;;;;;;;;;;7381010;19;20479;-79
2022/03/22 21:18:29;;;;;;;36.22;19.52;;;;;;;;;;7379058;19;20018;-80
2022/03/22 21:20:54;;;;;;;36.53;19.45;;;;;;;;;;7370351;19;20006;-79
2022/03/22 21:23:19;;;;;;;38.42;20.20;;;;;;;;;;7371710;19;20021;-84
2022/03/22 21:25:44;;;;;;;36.90;19.67;;;;;;;;;;7380314;19;21108;-82
2022/03/22 21:28:10;;;;;;;32.65;18.67;;;;;;;;;;7381615;19;20259;-82
2022/03/22 21:30:35;;;;;;;33.92;17.38;;;;;;;;;;7374420;19;20027;-82
2022/03/22 21:33:00;;;;;;;32.97;18.53;;;;;;;;;;7381243;19;20011;-79
2022/03/22 21:35:25;;;;;;;35.67;19.02;;;;;;;;;;7377402;19;20279;-80
2022/03/22 21:37:52;;;;;;;36.40;17.33;;;;;;;;;;7384014;19;20720;-82
2022/03/22 21:40:17;;;;;;;33.33;18.33;;;;;;;;;;7372558;19;20007;-79
2022/03/22 21:42:42;;;;;;;37.38;19.52;;;;;;;;;;7377582;19;20754;-79
2022/03/22 21:45:09;;;;;;;39.35;17.90;;;;;;;;;;7381325;19;20006;-82
2022/03/22 21:47:34;;;;;;;32.70;18.00;;;;;;;;;;7375697;19;20045;-80
2022/03/22 21:49:59;;;;;;;32.63;17.92;;;;;;;;;;7373195;19;20383;-81
2022/03/22 21:52:25;;;;;;;33.95;18.75;;;;;;;;;;7380599;19;20040;-84
2022/03/22 21:54:51;;;;;;;32.17;18.13;;;;;;;;;;7375916;19;20006;-81
2022/03/22 21:57:16;;;;;;;36.35;19.02;;;;;;;;;;7370538;19;20015;-79
2022/03/22 21:59:41;;;;;;;34.00;19.20;;;;;;;;;;7367912;19;20021;-77
2022/03/22 22:02:07;;;;;;;34.37;18.70;;;;;;;;;;7381430;19;20010;-81
2022/03/22 22:04:32;;;;;;;34.58;19.33;;;;;;;;;;7374438;19;20597;-79
2022/03/22 22:06:57;;;;;;;37.23;19.83;;;;;;;;;;7379110;19;20042;-84
2022/03/22 22:09:22;;;;;;;35.53;19.50;;;;;;;;;;7366637;19;20337;-80
2022/03/22 22:11:49;;;;;;;40.80;21.00;;;;;;;;;;7378939;19;20025;-79
2022/03/22 22:14:14;;;;;;;39.22;20.70;;;;;;;;;;7377536;19;20275;-79
2022/03/22 22:16:39;;;;;;;35.72;19.38;;;;;;;;;;7378666;19;20018;-80
2022/03/22 22:19:04;;;;;;;35.40;18.17;;;;;;;;;;7382718;19;20009;-79
2022/03/22 22:21:30;;;;;;;39.95;20.55;;;;;;;;;;7377556;19;20025;-82
2022/03/22 22:23:55;;;;;;;33.78;19.95;;;;;;;;;;7372725;19;20187;-78
2022/03/22 22:26:20;;;;;;;35.15;19.73;;;;;;;;;;7379602;19;20050;-80
2022/03/22 22:28:45;;;;;;;40.50;20.08;;;;;;;;;;7370534;19;20254;-79
2022/03/22 22:31:10;;;;;;;39.42;19.77;;;;;;;;;;7379219;19;20014;-79
2022/03/22 22:36:19;;;;;;;33.33;17.38;;;;;;;;;;7358760;19;20034;-82
2022/03/22 22:38:45;;;;;;;32.83;18.10;;;;;;;;;;7377444;19;20006;-80
2022/03/22 22:41:11;;;;;;;39.63;20.73;;;;;;;;;;7379957;19;20029;-81
2022/03/22 22:43:36;;;;;;;36.13;18.60;;;;;;;;;;7376051;19;20466;-85
2022/03/22 22:46:02;;;;;;;36.15;19.67;;;;;;;;;;7373048;19;20006;-79
2022/03/22 22:48:27;;;;;;;36.50;18.83;;;;;;;;;;7370765;19;21036;-80
2022/03/22 22:50:52;;;;;;;38.13;19.80;;;;;;;;;;7375350;19;20014;-79
2022/03/22 22:53:18;;;;;;;34.65;20.75;;;;;;;;;;7375772;19;20007;-81
2022/03/22 22:55:43;;;;;;;41.42;20.02;;;;;;;;;;7378895;19;20010;-81
2022/03/22 22:58:09;;;;;;;37.55;20.20;;;;;;;;;;7378695;19;20098;-80
2022/03/22 23:00:58;;;;;;;38.60;21.05;;;;;;;;;;7369586;19;20007;-84
2022/03/22 23:03:25;;;;;;;36.97;20.48;;;;;;;;;;7374139;19;20386;-83
2022/03/22 23:05:50;;;;;;;35.15;19.70;;;;;;;;;;7376950;19;20014;-81
2022/03/22 23:10:59;;;;;;;37.92;19.35;;;;;;;;;;7377550;19;20034;-79
2022/03/22 23:13:24;;;;;;;37.05;20.50;;;;;;;;;;7369954;19;20010;-80
2022/03/22 23:15:50;;;;;;;36.67;20.30;;;;;;;;;;7373434;19;20003;-81
2022/03/22 23:18:15;;;;;;;38.25;20.65;;;;;;;;;;7381863;19;20090;-79
2022/03/22 23:20:42;;;;;;;39.58;20.65;;;;;;;;;;7373763;19;20021;-81
2022/03/22 23:23:07;;;;;;;40.05;20.80;;;;;;;;;;7373313;19;20019;-82
2022/03/22 23:25:32;;;;;;;41.25;20.70;;;;;;;;;;7374120;19;20342;-80
2022/03/22 23:27:57;;;;;;;35.20;19.50;;;;;;;;;;7369518;19;20010;-79
2022/03/22 23:30:24;;;;;;;37.20;19.42;;;;;;;;;;7376528;19;20645;-81
2022/03/22 23:32:49;;;;;;;36.53;20.52;;;;;;;;;;7376508;19;20616;-80
2022/03/22 23:35:14;;;;;;;36.30;19.08;;;;;;;;;;7371900;19;20014;-79
2022/03/22 23:37:39;;;;;;;39.23;20.60;;;;;;;;;;7381791;19;20010;-79
2022/03/22 23:40:05;;;;;;;39.78;20.73;;;;;;;;;;7375951;19;20821;-82
2022/03/22 23:42:30;;;;;;;36.40;19.60;;;;;;;;;;7368887;19;20088;-79
2022/03/22 23:44:55;;;;;;;36.80;19.80;;;;;;;;;;7374525;19;20011;-82
2022/03/22 23:47:21;;;;;;;43.05;21.73;;;;;;;;;;7376970;19;20646;-83
2022/03/22 23:49:46;;;;;;;38.03;20.25;;;;;;;;;;7370829;19;20135;-77
2022/03/22 23:52:11;;;;;;;40.70;20.20;;;;;;;;;;7362464;19;21206;-80
2022/03/22 23:54:36;;;;;;;38.17;20.45;;;;;;;;;;7371919;19;20274;-83
2022/03/22 23:57:02;;;;;;;34.90;19.80;;;;;;;;;;7377224;19;20011;-81
2022/03/22 23:59:27;;;;;;;39.13;20.70;;;;;;;;;;7369893;19;20027;-81
